Time;durP1;ratioP1;P1;durP2;ratioP2;P2;SDS_P1;SDS_P2;PMS_P1;PMS_P2;Temp;Humidity;BMP_temperature;BMP_pressure;BME280_temperature;BME280_humidity;BME280_pressure;Samples;Min_cycle;Max_cycle;Signal;HPM_P1;HPM_P2
2023/08/22 00:00:45;;;;;;;9.20;7.65;;;24.90;78.50;;;;;;5026342;28;20493;-66
2023/08/22 00:03:11;;;;;;;8.65;7.85;;;24.90;78.40;;;;;;5029565;28;20045;-66
2023/08/22 00:05:36;;;;;;;9.43;8.30;;;25.00;78.60;;;;;;5029702;28;20570;-66
2023/08/22 00:08:05;;;;;;;8.15;7.38;;;25.00;78.50;;;;;;5029751;28;20420;-65
2023/08/22 00:10:34;;;;;;;10.13;8.05;;;25.00;78.60;;;;;;5021472;28;20513;-66
2023/08/22 00:13:00;;;;;;;9.68;8.77;;;25.00;78.80;;;;;;5028558;28;20049;-65
2023/08/22 00:15:26;;;;;;;12.15;8.77;;;25.00;78.50;;;;;;5030226;28;20118;-65
2023/08/22 00:17:51;;;;;;;9.23;8.30;;;25.00;78.40;;;;;;5026842;28;20120;-66
2023/08/22 00:20:17;;;;;;;10.05;8.63;;;24.90;78.30;;;;;;5028796;28;20041;-65
2023/08/22 00:22:43;;;;;;;10.82;9.15;;;24.90;78.20;;;;;;5031313;28;20493;-65
2023/08/22 00:25:10;;;;;;;9.98;8.63;;;24.90;78.40;;;;;;5028555;28;20033;-66
2023/08/22 00:27:36;;;;;;;12.38;9.00;;;24.90;78.70;;;;;;5025299;28;20092;-65
2023/08/22 00:30:03;;;;;;;9.65;8.75;;;24.80;78.70;;;;;;5030350;28;20412;-66
2023/08/22 00:32:29;;;;;;;10.02;9.00;;;24.80;79.00;;;;;;5027797;28;20048;-65
2023/08/22 00:34:55;;;;;;;10.18;9.20;;;24.80;79.10;;;;;;5029880;28;20075;-66
2023/08/22 00:37:21;;;;;;;11.60;9.43;;;24.80;79.00;;;;;;5031817;28;20520;-66
2023/08/22 00:39:46;;;;;;;11.35;9.65;;;24.70;79.00;;;;;;5032359;28;20042;-65
2023/08/22 00:42:12;;;;;;;9.73;8.77;;;24.70;79.10;;;;;;5025310;28;20045;-65
2023/08/22 00:44:37;;;;;;;9.98;8.93;;;24.70;79.30;;;;;;5033140;28;20044;-66
2023/08/22 00:47:04;;;;;;;11.60;8.93;;;24.60;79.40;;;;;;5031666;28;20040;-65
2023/08/22 00:49:31;;;;;;;11.38;9.05;;;24.60;79.60;;;;;;5028459;28;20037;-66
2023/08/22 00:51:58;;;;;;;9.93;8.75;;;24.50;79.50;;;;;;5030690;28;20607;-65
2023/08/22 00:54:26;;;;;;;10.88;8.70;;;24.50;80.50;;;;;;5034746;28;20471;-65
2023/08/22 00:56:53;;;;;;;10.07;8.98;;;24.50;79.80;;;;;;5029680;28;20029;-65
2023/08/22 00:59:19;;;;;;;9.77;8.82;;;24.50;79.80;;;;;;5026919;28;20032;-65
2023/08/22 01:01:46;;;;;;;9.80;8.80;;;24.40;79.90;;;;;;5027089;28;20078;-65
2023/08/22 01:04:11;;;;;;;9.73;8.35;;;24.40;80.10;;;;;;5027500;28;20062;-66
2023/08/22 01:06:51;;;;;;;10.20;8.77;;;24.30;80.20;;;;;;5026049;28;20132;-66
2023/08/22 01:09:31;;;;;;;8.88;8.07;;;24.20;81.00;;;;;;5026409;28;20064;-65
2023/08/22 01:12:08;;;;;;;12.93;8.30;;;24.20;80.80;;;;;;5027220;28;20034;-65
2023/08/22 01:14:38;;;;;;;8.40;7.68;;;24.20;80.60;;;;;;5025960;28;20073;-65
2023/08/22 01:17:06;;;;;;;10.65;8.48;;;24.20;80.60;;;;;;5032333;28;20099;-65
2023/08/22 01:19:32;;;;;;;9.32;8.50;;;24.10;80.60;;;;;;5025444;28;20044;-65
2023/08/22 01:21:58;;;;;;;9.40;8.50;;;24.10;80.70;;;;;;5027810;28;20459;-66
2023/08/22 01:24:23;;;;;;;9.07;8.13;;;24.10;80.80;;;;;;5027225;28;20038;-66
2023/08/22 01:26:49;;;;;;;9.20;8.23;;;24.10;81.00;;;;;;5030984;28;20041;-67
2023/08/22 01:29:22;;;;;;;9.18;8.27;;;24.00;81.10;;;;;;5024909;28;20044;-65
2023/08/22 01:31:56;;;;;;;8.63;7.78;;;24.00;81.50;;;;;;5030358;28;20041;-65
2023/08/22 01:34:32;;;;;;;8.82;7.97;;;23.90;81.30;;;;;;5031615;28;20044;-66
2023/08/22 01:36:59;;;;;;;10.05;8.13;;;23.90;82.00;;;;;;5033446;28;20518;-65
2023/08/22 01:39:27;;;;;;;8.45;7.47;;;23.90;81.70;;;;;;5031920;28;20040;-65
2023/08/22 01:41:55;;;;;;;9.00;7.93;;;23.80;81.50;;;;;;5031079;28;20037;-65
2023/08/22 01:44:20;;;;;;;9.23;8.32;;;23.80;81.70;;;;;;5027761;28;20511;-65
2023/08/22 01:46:46;;;;;;;9.40;8.15;;;23.80;81.80;;;;;;5027559;28;20097;-65
2023/08/22 01:49:11;;;;;;;9.57;8.57;;;23.70;81.70;;;;;;5026939;28;20046;-65
2023/08/22 01:51:37;;;;;;;9.23;8.32;;;23.70;81.80;;;;;;5028151;28;20468;-65
2023/08/22 01:54:03;;;;;;;9.73;8.00;;;23.70;81.90;;;;;;5028873;28;20029;-65
2023/08/22 01:56:28;;;;;;;9.13;8.32;;;23.70;82.00;;;;;;5027459;28;20033;-66
2023/08/22 01:58:54;;;;;;;10.25;8.48;;;23.70;82.20;;;;;;5030820;28;20114;-65
2023/08/22 02:01:20;;;;;;;11.65;7.38;;;23.60;82.10;;;;;;5027089;28;20029;-65
2023/08/22 02:03:46;;;;;;;9.13;8.18;;;23.60;82.00;;;;;;5027595;28;20495;-65
2023/08/22 02:06:11;;;;;;;9.55;7.78;;;23.60;82.20;;;;;;5022284;28;20540;-65
2023/08/22 02:08:39;;;;;;;8.95;8.05;;;23.60;82.30;;;;;;5026374;28;20052;-65
2023/08/22 02:11:05;;;;;;;9.02;8.10;;;23.60;82.40;;;;;;5023849;28;20348;-65
2023/08/22 02:13:31;;;;;;;9.10;8.23;;;23.60;82.50;;;;;;5024506;28;20044;-66
2023/08/22 02:15:57;;;;;;;9.30;8.40;;;23.60;82.40;;;;;;5025406;28;20040;-65
2023/08/22 02:18:23;;;;;;;8.57;7.78;;;23.60;82.50;;;;;;5024524;28;20229;-65
2023/08/22 02:20:51;;;;;;;9.18;8.27;;;23.60;82.60;;;;;;5025794;28;20047;-65
2023/08/22 02:23:17;;;;;;;9.20;7.60;;;23.50;82.90;;;;;;5027120;28;20033;-65
2023/08/22 02:25:42;;;;;;;9.00;8.20;;;23.50;82.90;;;;;;5032123;28;20400;-65
2023/08/22 02:28:08;;;;;;;9.25;8.35;;;23.50;82.80;;;;;;5029747;28;20069;-65
2023/08/22 02:30:34;;;;;;;8.80;8.00;;;23.50;82.90;;;;;;5030112;28;20039;-65
2023/08/22 02:32:59;;;;;;;9.60;8.25;;;23.40;82.90;;;;;;5027699;28;20056;-66
2023/08/22 02:35:25;;;;;;;9.55;8.52;;;23.40;82.80;;;;;;5030981;28;20099;-65
2023/08/22 02:37:51;;;;;;;10.70;7.70;;;23.40;82.70;;;;;;5026759;28;20021;-67
2023/08/22 02:40:17;;;;;;;10.23;8.63;;;23.40;82.70;;;;;;5026063;28;20057;-65
2023/08/22 02:42:43;;;;;;;9.55;8.18;;;23.40;82.90;;;;;;5031514;28;20028;-65
2023/08/22 02:45:09;;;;;;;9.05;8.10;;;23.40;82.90;;;;;;5030409;28;20076;-65
2023/08/22 02:47:35;;;;;;;9.45;8.55;;;23.40;83.00;;;;;;5030642;28;20323;-65
2023/08/22 02:50:00;;;;;;;9.70;8.50;;;23.40;83.00;;;;;;5027905;28;20041;-65
2023/08/22 02:52:26;;;;;;;9.25;8.35;;;23.30;83.10;;;;;;5029919;28;20468;-65
2023/08/22 02:54:52;;;;;;;9.15;8.13;;;23.30;83.20;;;;;;5030502;28;20048;-65
2023/08/22 02:57:18;;;;;;;9.40;8.20;;;23.30;83.30;;;;;;5031365;28;20029;-65
2023/08/22 02:59:43;;;;;;;8.80;7.85;;;23.30;83.20;;;;;;5032918;28;20476;-65
2023/08/22 03:02:09;;;;;;;8.75;7.85;;;23.30;83.30;;;;;;5033692;28;20475;-66
2023/08/22 03:04:37;;;;;;;9.30;8.32;;;23.30;83.40;;;;;;5032287;28;20041;-65
2023/08/22 03:07:04;;;;;;;9.95;8.55;;;23.30;83.50;;;;;;5031087;28;20029;-65
2023/08/22 03:09:29;;;;;;;9.02;7.78;;;23.20;83.50;;;;;;5027670;28;20049;-65
2023/08/22 03:11:55;;;;;;;11.38;8.43;;;23.20;83.50;;;;;;5025813;28;20385;-65
2023/08/22 03:14:21;;;;;;;9.00;8.20;;;23.20;83.60;;;;;;5031122;28;20396;-65
2023/08/22 03:16:46;;;;;;;9.23;8.13;;;23.20;83.60;;;;;;5028700;28;20409;-65
2023/08/22 03:19:12;;;;;;;9.52;8.63;;;23.20;83.70;;;;;;5026674;28;20044;-65
2023/08/22 03:21:38;;;;;;;9.77;8.30;;;23.10;83.70;;;;;;5029803;28;20164;-65
2023/08/22 03:24:04;;;;;;;12.05;8.15;;;23.10;83.70;;;;;;5031919;28;20040;-65
2023/08/22 03:26:29;;;;;;;10.07;8.30;;;23.10;83.80;;;;;;5023484;28;20741;-65
2023/08/22 03:28:55;;;;;;;8.80;7.90;;;23.00;83.90;;;;;;5031530;28;20094;-68
2023/08/22 03:31:22;;;;;;;8.25;7.55;;;23.00;84.00;;;;;;5024972;28;20044;-65
2023/08/22 03:33:48;;;;;;;11.88;8.18;;;23.00;84.10;;;;;;5028188;28;20496;-65
2023/08/22 03:36:13;;;;;;;11.57;8.20;;;22.90;84.20;;;;;;5029672;28;20064;-65
2023/08/22 03:38:39;;;;;;;10.88;7.53;;;22.90;84.30;;;;;;5025832;28;20565;-65
2023/08/22 03:41:05;;;;;;;9.63;8.73;;;22.90;84.40;;;;;;5029019;28;20509;-65
2023/08/22 03:43:31;;;;;;;10.30;8.40;;;22.80;84.50;;;;;;5027851;28;20044;-65
2023/08/22 03:45:56;;;;;;;8.82;8.00;;;22.80;84.70;;;;;;5028060;28;20083;-66
2023/08/22 03:48:22;;;;;;;9.73;7.95;;;22.80;84.80;;;;;;5028318;28;20038;-64
2023/08/22 03:50:47;;;;;;;13.60;8.43;;;22.80;85.00;;;;;;5024117;28;20044;-65
2023/08/22 03:53:14;;;;;;;8.30;7.32;;;22.70;85.00;;;;;;5028357;28;20041;-65
2023/08/22 03:55:40;;;;;;;8.20;7.40;;;22.70;85.00;;;;;;5030289;28;20054;-65
2023/08/22 03:58:07;;;;;;;9.05;8.15;;;22.70;85.10;;;;;;5031455;28;20048;-65
2023/08/22 04:00:32;;;;;;;8.85;7.55;;;22.80;85.30;;;;;;5023702;28;20083;-65
2023/08/22 04:02:59;;;;;;;9.15;8.18;;;22.70;85.20;;;;;;5027157;28;20033;-65
2023/08/22 04:05:25;;;;;;;8.85;8.00;;;22.70;85.20;;;;;;5029056;28;20184;-65
2023/08/22 04:07:51;;;;;;;8.75;7.85;;;22.70;85.00;;;;;;5034012;28;20038;-65
2023/08/22 04:10:18;;;;;;;11.32;7.70;;;22.70;84.90;;;;;;5033984;28;20047;-65
2023/08/22 04:12:44;;;;;;;10.35;7.85;;;22.70;85.20;;;;;;5026501;28;20029;-65
2023/08/22 04:15:11;;;;;;;8.50;7.68;;;22.70;84.90;;;;;;5031793;28;20059;-65
2023/08/22 04:17:38;;;;;;;9.68;7.57;;;22.70;85.00;;;;;;5034262;28;20061;-65
2023/08/22 04:20:07;;;;;;;8.32;7.53;;;22.70;85.00;;;;;;5030756;28;20519;-65
2023/08/22 04:22:32;;;;;;;10.45;7.78;;;22.70;84.90;;;;;;5030536;28;20151;-65
2023/08/22 04:24:58;;;;;;;9.13;7.22;;;22.70;84.80;;;;;;5033254;28;20635;-65
2023/08/22 04:27:23;;;;;;;9.00;8.10;;;22.70;84.60;;;;;;5030400;28;20409;-65
2023/08/22 04:29:49;;;;;;;11.52;8.10;;;22.70;85.00;;;;;;5034814;28;20048;-66
2023/08/22 04:32:14;;;;;;;8.75;7.85;;;22.70;85.00;;;;;;5032823;28;20049;-65
2023/08/22 04:34:40;;;;;;;9.73;7.38;;;22.70;85.00;;;;;;5026515;28;20033;-65
2023/08/22 04:37:06;;;;;;;10.02;8.23;;;22.60;84.80;;;;;;5032287;28;20038;-65
2023/08/22 04:39:31;;;;;;;8.55;7.75;;;22.70;85.10;;;;;;5026182;28;20044;-65
2023/08/22 04:41:57;;;;;;;13.73;8.70;;;22.60;85.20;;;;;;5025918;28;20029;-65
2023/08/22 04:44:22;;;;;;;8.73;7.82;;;22.50;86.00;;;;;;5024897;28;20036;-66
2023/08/22 04:46:48;;;;;;;8.48;7.50;;;22.60;85.30;;;;;;5031663;28;20037;-65
2023/08/22 04:49:13;;;;;;;10.02;8.30;;;22.70;85.40;;;;;;5031695;28;20064;-65
2023/08/22 04:51:39;;;;;;;8.80;8.00;;;22.60;86.40;;;;;;5026816;28;20578;-65
2023/08/22 04:54:05;;;;;;;8.02;7.20;;;22.60;85.40;;;;;;5029163;28;20065;-65
2023/08/22 04:56:30;;;;;;;8.52;7.72;;;22.60;85.30;;;;;;5033042;28;20040;-65
2023/08/22 04:58:56;;;;;;;10.02;8.02;;;22.60;85.30;;;;;;5029126;28;20040;-65
2023/08/22 05:01:21;;;;;;;8.93;7.78;;;22.70;85.40;;;;;;5027150;28;20040;-65
2023/08/22 05:03:47;;;;;;;8.73;7.82;;;22.60;85.30;;;;;;5027482;28;20046;-66
2023/08/22 05:06:12;;;;;;;9.05;8.15;;;22.70;85.50;;;;;;5026779;28;20237;-65
2023/08/22 05:08:38;;;;;;;9.20;8.40;;;22.60;85.50;;;;;;5028688;28;20041;-65
2023/08/22 05:11:04;;;;;;;9.23;8.32;;;22.60;85.80;;;;;;5024398;28;20032;-66
2023/08/22 05:13:29;;;;;;;8.80;7.72;;;22.60;85.90;;;;;;5028360;28;20045;-65
2023/08/22 05:15:55;;;;;;;10.70;7.95;;;22.60;85.90;;;;;;5032676;28;20036;-65
2023/08/22 05:18:20;;;;;;;12.55;8.98;;;22.60;85.90;;;;;;5030727;28;20638;-66
2023/08/22 05:20:50;;;;;;;10.05;7.93;;;22.60;85.90;;;;;;5027090;28;20033;-65
2023/08/22 05:23:16;;;;;;;11.05;8.02;;;22.70;86.20;;;;;;5031104;28;20037;-65
2023/08/22 05:25:41;;;;;;;14.35;7.93;;;22.70;86.20;;;;;;5030802;28;20048;-65
2023/08/22 05:28:08;;;;;;;16.17;8.50;;;22.70;86.20;;;;;;5028883;28;20132;-65
2023/08/22 05:30:36;;;;;;;13.07;8.48;;;22.70;86.20;;;;;;5027624;28;20130;-65
2023/08/22 05:33:02;;;;;;;18.25;8.18;;;22.70;86.40;;;;;;5033782;28;20295;-65
2023/08/22 05:35:28;;;;;;;11.63;8.90;;;22.80;86.70;;;;;;5037271;28;20037;-65
2023/08/22 05:37:53;;;;;;;16.25;8.88;;;22.80;86.90;;;;;;5025933;28;20134;-65
2023/08/22 05:40:19;;;;;;;12.38;8.05;;;22.80;87.00;;;;;;5032265;28;20049;-65
2023/08/22 05:42:45;;;;;;;16.48;8.55;;;22.90;87.10;;;;;;5024645;28;20061;-66
2023/08/22 05:45:10;;;;;;;16.50;8.98;;;22.90;87.10;;;;;;5026725;28;20035;-66
2023/08/22 05:47:36;;;;;;;15.40;8.60;;;22.90;87.10;;;;;;5029113;28;20034;-65
2023/08/22 05:50:03;;;;;;;16.92;8.70;;;23.00;87.10;;;;;;5028440;28;20033;-63
2023/08/22 05:52:29;;;;;;;13.82;7.93;;;23.00;86.90;;;;;;5025479;28;20529;-64
2023/08/22 05:54:55;;;;;;;16.50;8.68;;;23.10;86.80;;;;;;5028711;28;20044;-65
2023/08/22 05:57:22;;;;;;;13.30;8.13;;;23.10;86.90;;;;;;5025297;28;20042;-65
2023/08/22 05:59:48;;;;;;;12.57;7.90;;;23.20;86.90;;;;;;5029603;28;20033;-65
2023/08/22 06:02:14;;;;;;;12.10;8.77;;;23.20;86.90;;;;;;5027506;28;20090;-65
2023/08/22 06:04:40;;;;;;;12.18;8.73;;;23.30;86.90;;;;;;5027399;28;20029;-65
2023/08/22 06:07:05;;;;;;;9.90;8.52;;;23.30;86.80;;;;;;5030894;28;20029;-66
2023/08/22 06:09:31;;;;;;;10.52;8.68;;;23.40;86.90;;;;;;5026754;28;20109;-65
2023/08/22 06:11:57;;;;;;;12.07;8.50;;;23.40;86.40;;;;;;5026800;28;20037;-66
2023/08/22 06:14:22;;;;;;;13.90;8.98;;;23.50;86.70;;;;;;5028525;28;20055;-65
2023/08/22 06:16:48;;;;;;;10.60;7.90;;;23.60;86.70;;;;;;5033262;28;20060;-65
2023/08/22 06:19:14;;;;;;;11.35;8.20;;;23.60;86.60;;;;;;5025036;28;20026;-65
2023/08/22 06:21:39;;;;;;;13.20;8.45;;;23.70;86.70;;;;;;5026871;28;20395;-66
2023/08/22 06:24:05;;;;;;;11.85;9.00;;;23.80;86.50;;;;;;5024530;28;20049;-65
2023/08/22 06:26:31;;;;;;;12.70;8.38;;;23.90;86.60;;;;;;5009994;28;20047;-65
2023/08/22 06:28:57;;;;;;;10.93;7.93;;;23.90;86.40;;;;;;5019343;28;20045;-65
2023/08/22 06:31:23;;;;;;;11.35;8.38;;;23.90;86.20;;;;;;5010935;28;20052;-65
2023/08/22 06:33:49;;;;;;;14.98;8.38;;;24.00;85.90;;;;;;5024077;28;20423;-64
2023/08/22 06:36:15;;;;;;;11.52;7.75;;;24.10;85.90;;;;;;5019109;28;20123;-65
2023/08/22 06:38:40;;;;;;;10.32;7.85;;;24.10;85.80;;;;;;5021114;28;20041;-65
2023/08/22 06:41:07;;;;;;;13.68;8.65;;;24.20;86.00;;;;;;5022113;28;20044;-65
2023/08/22 06:43:33;;;;;;;8.80;8.00;;;24.30;86.00;;;;;;5025961;28;20036;-65
2023/08/22 06:45:59;;;;;;;12.00;8.45;;;24.40;86.10;;;;;;5026470;28;20378;-65
2023/08/22 06:48:26;;;;;;;10.68;8.20;;;24.40;85.70;;;;;;5024342;28;20048;-65
2023/08/22 06:50:52;;;;;;;12.40;7.97;;;24.50;85.50;;;;;;5024504;28;20333;-65
2023/08/22 06:53:18;;;;;;;9.35;7.40;;;24.60;85.30;;;;;;5023348;28;20053;-65
2023/08/22 06:55:48;;;;;;;10.60;8.13;;;24.70;85.20;;;;;;5020635;28;20049;-65
2023/08/22 06:58:14;;;;;;;9.73;8.25;;;24.70;84.90;;;;;;5023950;28;20037;-65
2023/08/22 07:00:39;;;;;;;9.18;8.27;;;24.80;84.20;;;;;;5019793;28;20033;-65
2023/08/22 07:03:06;;;;;;;9.18;7.90;;;24.90;83.90;;;;;;5008297;28;20400;-64
2023/08/22 07:05:34;;;;;;;8.25;7.20;;;25.00;83.70;;;;;;5004257;28;25489;-65
2023/08/22 07:08:00;;;;;;;9.27;7.72;;;25.00;83.90;;;;;;5007497;28;20029;-65
2023/08/22 07:10:26;;;;;;;11.35;7.35;;;25.00;83.60;;;;;;5012170;28;20049;-64
2023/08/22 07:12:52;;;;;;;8.88;8.00;;;25.20;83.20;;;;;;5011624;28;20053;-66
2023/08/22 07:15:17;;;;;;;7.15;6.47;;;25.20;83.00;;;;;;5008556;28;20045;-65
2023/08/22 07:17:43;;;;;;;6.90;6.25;;;25.30;82.60;;;;;;5008099;28;20068;-65
2023/08/22 07:20:09;;;;;;;10.80;6.65;;;25.40;82.40;;;;;;5009849;28;20509;-65
2023/08/22 07:22:34;;;;;;;9.90;6.38;;;25.50;82.10;;;;;;5010628;28;20095;-66
2023/08/22 07:25:00;;;;;;;12.32;6.65;;;25.60;81.80;;;;;;5008939;28;20075;-65
2023/08/22 07:27:26;;;;;;;12.52;6.50;;;25.60;81.40;;;;;;5015931;28;20037;-65
2023/08/22 07:29:52;;;;;;;8.15;6.25;;;25.70;81.30;;;;;;5011355;28;20165;-65
2023/08/22 07:32:19;;;;;;;6.78;6.18;;;25.80;81.20;;;;;;5012911;28;20040;-65
2023/08/22 07:34:45;;;;;;;6.70;6.00;;;25.90;82.00;;;;;;5017552;28;20045;-65
2023/08/22 07:37:11;;;;;;;6.78;5.72;;;25.90;80.90;;;;;;5011493;28;20037;-66
2023/08/22 07:39:37;;;;;;;7.28;6.32;;;26.00;80.90;;;;;;5018833;28;20029;-66
2023/08/22 07:42:04;;;;;;;8.13;6.60;;;26.10;80.80;;;;;;5032728;28;20041;-65
2023/08/22 07:44:30;;;;;;;7.05;6.35;;;26.20;80.40;;;;;;5032498;28;20860;-65
2023/08/22 07:46:56;;;;;;;9.00;6.38;;;26.30;80.30;;;;;;5025090;28;20109;-66
2023/08/22 07:49:21;;;;;;;9.35;6.38;;;26.40;80.10;;;;;;5017895;28;20512;-65
2023/08/22 07:51:47;;;;;;;6.93;6.22;;;26.40;79.60;;;;;;5019258;28;20052;-64
2023/08/22 07:54:13;;;;;;;14.27;10.98;;;26.50;79.30;;;;;;5013162;28;20091;-66
2023/08/22 07:56:38;;;;;;;11.23;10.00;;;26.60;79.30;;;;;;5023599;28;20484;-67
2023/08/22 07:59:04;;;;;;;7.55;6.72;;;26.70;79.30;;;;;;5024902;28;20029;-67
2023/08/22 08:01:29;;;;;;;11.80;6.35;;;26.80;79.00;;;;;;5012710;28;20034;-65
2023/08/22 08:03:55;;;;;;;7.50;6.50;;;26.80;78.60;;;;;;5029411;28;20043;-65
2023/08/22 08:06:21;;;;;;;6.68;5.90;;;26.90;78.30;;;;;;5020431;28;20094;-67
2023/08/22 08:08:47;;;;;;;8.43;6.22;;;27.00;78.00;;;;;;5031966;28;20037;-65
2023/08/22 08:11:12;;;;;;;10.82;6.53;;;27.10;77.70;;;;;;5027915;28;20045;-66
2023/08/22 08:13:38;;;;;;;8.68;6.32;;;27.10;77.30;;;;;;5035077;28;20094;-63
2023/08/22 08:16:04;;;;;;;7.30;5.90;;;27.20;76.80;;;;;;5034040;28;20167;-66
2023/08/22 08:18:29;;;;;;;11.23;6.28;;;27.30;76.90;;;;;;5031228;28;20174;-66
2023/08/22 08:20:55;;;;;;;8.07;6.15;;;27.40;76.90;;;;;;5024883;28;20459;-64
2023/08/22 08:23:21;;;;;;;7.22;5.55;;;27.50;77.00;;;;;;5036879;28;20091;-64
2023/08/22 08:25:46;;;;;;;6.93;6.20;;;27.60;77.00;;;;;;5035115;28;20033;-64
2023/08/22 08:28:12;;;;;;;7.28;6.03;;;27.70;76.60;;;;;;5032261;28;20041;-64
2023/08/22 08:30:37;;;;;;;9.38;6.32;;;27.70;76.10;;;;;;5022450;28;20559;-65
2023/08/22 08:33:03;;;;;;;7.85;6.30;;;27.80;75.60;;;;;;5024789;28;20049;-67
2023/08/22 08:35:29;;;;;;;6.93;6.28;;;27.90;75.50;;;;;;5029612;28;20121;-65
2023/08/22 08:37:57;;;;;;;8.80;7.82;;;28.00;74.50;;;;;;5030420;28;20031;-65
2023/08/22 08:40:22;;;;;;;11.52;8.43;;;28.10;74.10;;;;;;5032117;28;20051;-64
2023/08/22 08:42:49;;;;;;;9.98;8.82;;;28.10;73.90;;;;;;5030576;28;20053;-65
2023/08/22 08:45:15;;;;;;;12.00;9.60;;;28.30;73.10;;;;;;5032471;28;20057;-65
2023/08/22 08:47:42;;;;;;;8.75;7.50;;;28.30;72.20;;;;;;5035058;28;20500;-65
2023/08/22 08:50:09;;;;;;;9.23;7.63;;;28.40;72.10;;;;;;5026375;28;20759;-63
2023/08/22 08:52:35;;;;;;;8.40;7.47;;;28.40;71.60;;;;;;5031174;28;20038;-66
2023/08/22 08:55:06;;;;;;;8.32;6.35;;;28.50;71.10;;;;;;5031493;28;20121;-65
2023/08/22 08:57:32;;;;;;;7.50;6.40;;;28.60;71.00;;;;;;5031274;28;20041;-65
2023/08/22 09:00:00;;;;;;;8.15;6.00;;;28.60;71.70;;;;;;5034586;28;20045;-65
2023/08/22 09:02:27;;;;;;;6.18;5.68;;;28.70;71.10;;;;;;5032133;28;20033;-66
2023/08/22 09:04:53;;;;;;;6.45;5.65;;;28.80;70.90;;;;;;5030465;28;20095;-66
2023/08/22 09:07:19;;;;;;;7.13;6.40;;;28.90;71.10;;;;;;5032294;28;20037;-65
2023/08/22 09:09:45;;;;;;;7.13;6.53;;;28.90;70.60;;;;;;5023324;28;20072;-66
2023/08/22 09:12:10;;;;;;;13.45;6.45;;;29.00;69.40;;;;;;5032600;28;20044;-65
2023/08/22 09:14:43;;;;;;;8.82;6.05;;;29.10;69.00;;;;;;5035690;28;20042;-65
2023/08/22 09:17:10;;;;;;;8.35;6.32;;;29.20;68.70;;;;;;5034889;28;20030;-66
2023/08/22 09:19:35;;;;;;;7.30;5.93;;;29.30;69.20;;;;;;5033260;28;20029;-66
2023/08/22 09:22:03;;;;;;;7.43;5.75;;;29.40;69.10;;;;;;5037186;28;20044;-65
2023/08/22 09:24:29;;;;;;;6.32;5.72;;;29.40;69.20;;;;;;5036126;28;20068;-65
2023/08/22 09:26:56;;;;;;;5.68;5.10;;;29.50;68.60;;;;;;5033242;28;20029;-65
2023/08/22 09:29:27;;;;;;;8.27;5.47;;;29.60;68.50;;;;;;5024171;28;20562;-65
2023/08/22 09:32:01;;;;;;;6.90;5.40;;;29.60;67.20;;;;;;5019625;28;20048;-65
2023/08/22 09:34:27;;;;;;;7.20;5.25;;;29.70;67.50;;;;;;5028585;28;20059;-66
2023/08/22 09:36:56;;;;;;;12.10;5.40;;;29.80;67.30;;;;;;5032777;28;20033;-66
2023/08/22 09:39:23;;;;;;;5.47;4.88;;;29.90;66.80;;;;;;5037765;28;20580;-65
2023/08/22 09:41:54;;;;;;;6.95;5.93;;;29.90;66.40;;;;;;5033064;28;20037;-66
2023/08/22 09:44:23;;;;;;;7.65;5.20;;;30.00;65.10;;;;;;5030739;28;20042;-65
2023/08/22 09:46:51;;;;;;;6.78;4.95;;;30.00;64.90;;;;;;5022031;28;20520;-65
2023/08/22 09:49:17;;;;;;;5.57;5.07;;;30.10;65.20;;;;;;5028193;28;20041;-65
2023/08/22 09:51:55;;;;;;;9.27;4.38;;;30.20;65.30;;;;;;5026958;28;20056;-65
2023/08/22 09:54:22;;;;;;;5.00;4.50;;;30.20;64.30;;;;;;5031676;28;20037;-65
2023/08/22 09:56:49;;;;;;;5.47;4.60;;;30.40;64.60;;;;;;5030572;28;20149;-64
2023/08/22 09:59:18;;;;;;;5.00;4.50;;;30.40;65.30;;;;;;5027783;28;20037;-64
2023/08/22 10:01:44;;;;;;;5.07;4.30;;;30.50;63.90;;;;;;5030362;28;20084;-65
2023/08/22 10:04:10;;;;;;;4.13;3.72;;;30.60;63.30;;;;;;5032451;28;20512;-65
2023/08/22 10:06:37;;;;;;;4.38;4.07;;;30.70;61.80;;;;;;5029677;28;20531;-65
2023/08/22 10:09:07;;;;;;;4.38;3.97;;;30.70;62.60;;;;;;5026374;28;20053;-65
2023/08/22 10:11:37;;;;;;;5.53;4.03;;;30.80;61.90;;;;;;5024478;28;20087;-65
2023/08/22 10:14:04;;;;;;;4.88;4.10;;;30.90;62.00;;;;;;5032109;28;20045;-65
2023/08/22 10:16:30;;;;;;;3.90;3.47;;;30.90;62.00;;;;;;5030606;28;20033;-65
2023/08/22 10:19:04;;;;;;;5.55;3.45;;;31.00;59.70;;;;;;5034617;28;20041;-65
2023/08/22 10:21:45;;;;;;;5.10;3.60;;;31.10;59.20;;;;;;5033799;28;20061;-64
2023/08/22 10:24:26;;;;;;;6.57;3.35;;;31.20;58.10;;;;;;5030403;28;20371;-64
2023/08/22 10:27:02;;;;;;;5.30;3.53;;;31.20;57.10;;;;;;5028581;28;20152;-65
2023/08/22 10:29:34;;;;;;;4.10;3.38;;;31.20;56.50;;;;;;5027793;28;20034;-65
2023/08/22 10:32:00;;;;;;;4.47;3.40;;;31.30;57.30;;;;;;5031261;28;20077;-63
2023/08/22 10:34:48;;;;;;;5.57;3.75;;;31.30;58.00;;;;;;5029455;28;20551;-65
2023/08/22 10:37:17;;;;;;;7.00;3.50;;;31.40;57.70;;;;;;5024002;28;20044;-65
2023/08/22 10:39:47;;;;;;;4.03;3.58;;;31.40;57.10;;;;;;5031124;28;20165;-62
2023/08/22 10:42:20;;;;;;;3.47;3.17;;;31.40;57.10;;;;;;5032984;28;20064;-65
2023/08/22 10:44:50;;;;;;;3.88;3.25;;;31.50;57.30;;;;;;5031723;28;20448;-62
2023/08/22 10:47:18;;;;;;;4.95;3.63;;;31.50;57.30;;;;;;5034153;28;20579;-65
2023/08/22 10:49:47;;;;;;;3.97;3.47;;;31.60;57.40;;;;;;5035640;28;20033;-65
2023/08/22 10:52:13;;;;;;;4.15;2.92;;;31.60;57.20;;;;;;5031922;28;20049;-64
2023/08/22 10:54:57;;;;;;;6.18;3.60;;;31.70;57.00;;;;;;5033990;28;20037;-65
2023/08/22 10:57:23;;;;;;;3.90;3.33;;;31.80;56.80;;;;;;5027129;28;20412;-64
2023/08/22 11:00:13;;;;;;;4.40;3.60;;;31.90;57.30;;;;;;5030771;28;20033;-64
2023/08/22 11:02:41;;;;;;;5.28;3.28;;;31.90;56.30;;;;;;5027603;28;20033;-64
2023/08/22 11:05:12;;;;;;;3.42;3.13;;;32.00;56.80;;;;;;5032948;28;20033;-64
2023/08/22 11:07:42;;;;;;;7.47;3.50;;;32.00;56.90;;;;;;5025253;28;20305;-65
2023/08/22 11:10:12;;;;;;;5.13;3.65;;;32.10;56.00;;;;;;5029435;28;20076;-64
2023/08/22 11:12:38;;;;;;;3.55;3.25;;;32.20;55.40;;;;;;5022043;28;20461;-65
2023/08/22 11:15:04;;;;;;;4.65;3.70;;;32.20;56.10;;;;;;5027472;28;20045;-65
2023/08/22 11:17:30;;;;;;;4.40;4.00;;;32.20;55.50;;;;;;5030812;28;20044;-65
2023/08/22 11:19:57;;;;;;;4.47;3.60;;;32.20;55.90;;;;;;5028787;28;20421;-65
2023/08/22 11:22:23;;;;;;;4.50;3.97;;;32.20;55.70;;;;;;5028599;28;20127;-65
2023/08/22 11:24:51;;;;;;;5.57;3.70;;;32.30;57.00;;;;;;5030280;28;20473;-65
2023/08/22 11:27:17;;;;;;;4.03;3.63;;;32.30;55.80;;;;;;5029109;28;20623;-65
2023/08/22 11:29:49;;;;;;;4.55;3.78;;;32.30;55.70;;;;;;5030112;28;20038;-64
2023/08/22 11:32:20;;;;;;;3.40;3.20;;;32.30;55.00;;;;;;5028075;28;20083;-66
2023/08/22 11:34:46;;;;;;;5.90;3.63;;;32.40;55.70;;;;;;5027680;28;20132;-64
2023/08/22 11:37:12;;;;;;;3.90;3.47;;;32.40;55.90;;;;;;5031904;28;20037;-63
2023/08/22 11:39:38;;;;;;;4.55;3.78;;;32.50;55.80;;;;;;5031830;28;20223;-65
2023/08/22 11:42:04;;;;;;;4.00;3.70;;;32.50;55.60;;;;;;5029481;28;20278;-66
2023/08/22 11:44:30;;;;;;;6.20;3.70;;;32.60;55.50;;;;;;5026057;28;20029;-67
2023/08/22 11:46:55;;;;;;;4.13;3.72;;;32.60;55.00;;;;;;5025705;28;20040;-65
2023/08/22 11:49:21;;;;;;;3.70;3.22;;;32.60;54.90;;;;;;5028260;28;20120;-65
2023/08/22 11:51:52;;;;;;;4.97;3.50;;;32.60;54.80;;;;;;5032312;28;20133;-65
2023/08/22 11:54:25;;;;;;;3.65;3.35;;;32.60;53.80;;;;;;5032992;28;20041;-67
2023/08/22 11:56:53;;;;;;;7.30;3.20;;;32.60;53.90;;;;;;5033798;28;20045;-65
2023/08/22 11:59:18;;;;;;;4.45;3.50;;;32.60;54.10;;;;;;5024704;28;20103;-65
2023/08/22 12:01:44;;;;;;;3.85;3.47;;;32.60;53.80;;;;;;5028275;28;20033;-66
2023/08/22 12:04:10;;;;;;;3.90;3.35;;;32.60;53.80;;;;;;5030695;28;20038;-67
2023/08/22 12:06:35;;;;;;;3.28;3.08;;;32.60;53.90;;;;;;5033560;28;20064;-67
2023/08/22 12:09:01;;;;;;;3.20;2.95;;;32.60;54.50;;;;;;5033145;28;20111;-67
2023/08/22 12:11:29;;;;;;;4.03;3.05;;;32.50;54.90;;;;;;5030496;28;20044;-70
2023/08/22 12:13:54;;;;;;;4.25;3.22;;;32.50;54.20;;;;;;5033765;28;20061;-68
2023/08/22 12:16:20;;;;;;;4.00;3.60;;;32.60;53.90;;;;;;5032999;28;20107;-65
2023/08/22 12:18:45;;;;;;;5.82;3.47;;;32.60;53.90;;;;;;5029876;28;20580;-62
2023/08/22 12:21:13;;;;;;;3.78;3.08;;;32.60;53.60;;;;;;5026945;28;20032;-61
2023/08/22 12:23:39;;;;;;;3.42;3.10;;;32.60;53.60;;;;;;5029610;28;20033;-64
2023/08/22 12:26:05;;;;;;;3.30;3.00;;;32.60;53.50;;;;;;5031196;28;20044;-65
2023/08/22 12:28:30;;;;;;;3.65;3.05;;;32.60;53.40;;;;;;5030540;28;20107;-66
2023/08/22 12:30:56;;;;;;;4.85;3.35;;;32.70;53.50;;;;;;5032359;28;20052;-67
2023/08/22 12:33:22;;;;;;;3.65;2.70;;;32.70;52.80;;;;;;5025853;28;20045;-64
2023/08/22 12:35:47;;;;;;;2.92;2.72;;;32.70;52.80;;;;;;5022574;28;20079;-65
2023/08/22 12:38:13;;;;;;;2.90;2.70;;;32.70;53.00;;;;;;5036229;28;20515;-65
2023/08/22 12:40:39;;;;;;;2.88;2.67;;;32.80;53.20;;;;;;5031036;28;20037;-64